Terminal Aerodrome Forecast
Issued by NWS

Current Version | Previous Version | Graphics & Text | Print | Product List | Glossary On
Versions: 1 2 3 4 5 6 7 8 9 10 11 12 13 14 15 16 17 18 19 20 21 22 23 24 25 26 27 28 29 30 31 32 33 34 35 36 37 38 39 40
000
FTUS41 KRNK 162339
TAFLWB
TAF
KLWB 162339Z 1700/1724 28012G22KT 5SM -SHSN OVC020
      TEMPO 1700/1704 1SM -SHSN SCT004 OVC015
     FM170600 28010G20KT P6SM VCSH OVC025
      TEMPO 1706/1710 5SM -SHSN SCT007 OVC012
     FM171500 27012G25KT P6SM BKN050=

USA.gov is the U.S. government's official web portal to all federal, state and local government web resources and services.